Queets, Washington
Current Conditions -  °F | °C
As of 4:53 PM on Friday 24 Oct 2014 (Local Time) from KUIL Reporting Station
Haze Haze  
Wind Chill: 52°   Ceiling: 12000
Heat Index: 52°   Visibility: 5mi
Dew Point: 46°   Wind: 9mph
Humidity: 80%   Direction: 50°NE
Pressure: 29.86"   Gusts: NA
Location:  47.9519°N, 124.29°W
Report Text: KUIL 242353Z AUTO 05008KT 5SM HZ BKN120 11/08 A2986 RMK AO2 SLP114 T01110078 10139 20100 58025
Loading
Personal Weather Stations






























Interactive Weather Map
Tropical Storm Tracking
New forecast layout! Learn more

10-Day Weather Forecast

Advertisements
Track Severe Weather on mobile